sensor_id;sensor_type;location;lat;lon;timestamp;P1;durP1;ratioP1;P2;durP2;ratioP2
71648;SDS011;59492;45.638;11.714;2022-10-23T00:01:27;3.90;;;3.10;;
71648;SDS011;59492;45.638;11.714;2022-10-23T00:03:57;6.00;;;2.80;;
71648;SDS011;59492;45.638;11.714;2022-10-23T00:06:25;5.80;;;3.40;;
71648;SDS011;59492;45.638;11.714;2022-10-23T00:08:52;4.10;;;3.20;;
71648;SDS011;59492;45.638;11.714;2022-10-23T00:11:19;3.50;;;3.20;;
71648;SDS011;59492;45.638;11.714;2022-10-23T00:13:47;3.40;;;3.10;;
71648;SDS011;59492;45.638;11.714;2022-10-23T00:16:14;3.10;;;2.80;;
71648;SDS011;59492;45.638;11.714;2022-10-23T00:18:40;3.20;;;2.90;;
71648;SDS011;59492;45.638;11.714;2022-10-23T00:21:06;3.20;;;2.90;;
71648;SDS011;59492;45.638;11.714;2022-10-23T00:23:34;3.40;;;3.00;;
71648;SDS011;59492;45.638;11.714;2022-10-23T00:26:00;4.40;;;3.10;;
71648;SDS011;59492;45.638;11.714;2022-10-23T00:28:26;4.90;;;3.30;;
71648;SDS011;59492;45.638;11.714;2022-10-23T00:30:52;3.80;;;2.90;;
71648;SDS011;59492;45.638;11.714;2022-10-23T00:33:17;3.40;;;2.90;;
71648;SDS011;59492;45.638;11.714;2022-10-23T00:35:43;3.80;;;2.70;;
71648;SDS011;59492;45.638;11.714;2022-10-23T00:38:09;3.20;;;2.90;;
71648;SDS011;59492;45.638;11.714;2022-10-23T00:40:36;3.70;;;3.40;;
71648;SDS011;59492;45.638;11.714;2022-10-23T00:43:02;3.40;;;3.10;;
71648;SDS011;59492;45.638;11.714;2022-10-23T00:45:32;5.70;;;3.00;;
71648;SDS011;59492;45.638;11.714;2022-10-23T00:48:02;3.80;;;2.70;;
71648;SDS011;59492;45.638;11.714;2022-10-23T00:50:29;3.60;;;2.90;;
71648;SDS011;59492;45.638;11.714;2022-10-23T00:52:58;4.40;;;3.30;;
71648;SDS011;59492;45.638;11.714;2022-10-23T00:55:28;4.40;;;3.00;;
71648;SDS011;59492;45.638;11.714;2022-10-23T00:57:54;3.40;;;2.70;;
71648;SDS011;59492;45.638;11.714;2022-10-23T01:00:24;3.10;;;2.80;;
71648;SDS011;59492;45.638;11.714;2022-10-23T01:02:51;3.80;;;3.10;;
71648;SDS011;59492;45.638;11.714;2022-10-23T01:05:20;2.90;;;2.60;;
71648;SDS011;59492;45.638;11.714;2022-10-23T01:07:49;2.80;;;2.50;;
71648;SDS011;59492;45.638;11.714;2022-10-23T01:10:22;3.20;;;2.90;;
71648;SDS011;59492;45.638;11.714;2022-10-23T01:16:00;3.20;;;2.70;;
71648;SDS011;59492;45.638;11.714;2022-10-23T01:29:35;3.00;;;2.60;;
71648;SDS011;59492;45.638;11.714;2022-10-23T01:32:07;2.90;;;2.60;;
71648;SDS011;59492;45.638;11.714;2022-10-23T01:37:26;4.70;;;2.50;;
71648;SDS011;59492;45.638;11.714;2022-10-23T01:40:04;3.30;;;2.80;;
71648;SDS011;59492;45.638;11.714;2022-10-23T01:42:37;2.90;;;2.60;;
71648;SDS011;59492;45.638;11.714;2022-10-23T01:45:09;3.00;;;2.60;;
71648;SDS011;59492;45.638;11.714;2022-10-23T01:47:55;3.30;;;2.50;;
71648;SDS011;59492;45.638;11.714;2022-10-23T01:50:24;2.90;;;2.30;;
71648;SDS011;59492;45.638;11.714;2022-10-23T01:52:52;3.80;;;2.50;;
71648;SDS011;59492;45.638;11.714;2022-10-23T01:55:17;2.90;;;2.40;;
71648;SDS011;59492;45.638;11.714;2022-10-23T01:57:43;2.90;;;2.30;;
71648;SDS011;59492;45.638;11.714;2022-10-23T02:00:11;3.00;;;2.30;;
71648;SDS011;59492;45.638;11.714;2022-10-23T02:02:42;2.90;;;2.60;;
71648;SDS011;59492;45.638;11.714;2022-10-23T02:05:11;2.90;;;2.10;;
71648;SDS011;59492;45.638;11.714;2022-10-23T02:07:41;3.80;;;2.40;;
71648;SDS011;59492;45.638;11.714;2022-10-23T02:10:08;3.10;;;2.60;;
71648;SDS011;59492;45.638;11.714;2022-10-23T02:21:07;2.60;;;2.40;;
71648;SDS011;59492;45.638;11.714;2022-10-23T02:23:42;3.70;;;2.30;;
71648;SDS011;59492;45.638;11.714;2022-10-23T02:26:37;2.40;;;2.20;;
71648;SDS011;59492;45.638;11.714;2022-10-23T02:29:12;2.30;;;2.10;;
71648;SDS011;59492;45.638;11.714;2022-10-23T02:31:42;2.20;;;2.00;;
71648;SDS011;59492;45.638;11.714;2022-10-23T02:34:08;2.50;;;2.30;;
71648;SDS011;59492;45.638;11.714;2022-10-23T02:36:33;2.30;;;2.10;;
71648;SDS011;59492;45.638;11.714;2022-10-23T02:38:59;2.50;;;2.20;;
71648;SDS011;59492;45.638;11.714;2022-10-23T02:44:18;2.40;;;1.90;;
71648;SDS011;59492;45.638;11.714;2022-10-23T02:46:58;3.60;;;2.60;;
71648;SDS011;59492;45.638;11.714;2022-10-23T02:57:51;2.30;;;1.80;;
71648;SDS011;59492;45.638;11.714;2022-10-23T03:00:33;2.50;;;2.30;;
71648;SDS011;59492;45.638;11.714;2022-10-23T03:03:04;4.40;;;2.20;;
71648;SDS011;59492;45.638;11.714;2022-10-23T03:05:36;2.50;;;2.20;;
71648;SDS011;59492;45.638;11.714;2022-10-23T03:08:04;2.60;;;2.40;;
71648;SDS011;59492;45.638;11.714;2022-10-23T03:10:33;2.50;;;2.20;;
71648;SDS011;59492;45.638;11.714;2022-10-23T03:12:59;2.50;;;2.30;;
71648;SDS011;59492;45.638;11.714;2022-10-23T03:15:24;2.10;;;1.90;;
71648;SDS011;59492;45.638;11.714;2022-10-23T03:17:50;2.60;;;2.10;;
71648;SDS011;59492;45.638;11.714;2022-10-23T03:20:16;2.20;;;2.00;;
71648;SDS011;59492;45.638;11.714;2022-10-23T03:22:42;2.70;;;2.20;;
71648;SDS011;59492;45.638;11.714;2022-10-23T03:25:08;2.10;;;1.90;;
71648;SDS011;59492;45.638;11.714;2022-10-23T03:27:34;2.10;;;1.90;;
71648;SDS011;59492;45.638;11.714;2022-10-23T03:29:59;2.20;;;2.00;;
71648;SDS011;59492;45.638;11.714;2022-10-23T03:32:25;2.50;;;2.10;;
71648;SDS011;59492;45.638;11.714;2022-10-23T03:34:51;13.60;;;2.40;;
71648;SDS011;59492;45.638;11.714;2022-10-23T03:37:16;2.30;;;2.10;;
71648;SDS011;59492;45.638;11.714;2022-10-23T03:39:42;2.40;;;2.20;;
71648;SDS011;59492;45.638;11.714;2022-10-23T03:42:07;2.80;;;2.00;;
71648;SDS011;59492;45.638;11.714;2022-10-23T03:44:33;4.00;;;2.20;;
71648;SDS011;59492;45.638;11.714;2022-10-23T03:46:59;2.10;;;1.90;;
71648;SDS011;59492;45.638;11.714;2022-10-23T03:49:24;2.00;;;1.80;;
71648;SDS011;59492;45.638;11.714;2022-10-23T03:51:50;2.70;;;2.00;;
71648;SDS011;59492;45.638;11.714;2022-10-23T03:54:23;2.50;;;1.90;;
71648;SDS011;59492;45.638;11.714;2022-10-23T03:56:50;4.50;;;1.80;;
71648;SDS011;59492;45.638;11.714;2022-10-23T03:59:17;2.00;;;1.70;;
71648;SDS011;59492;45.638;11.714;2022-10-23T04:01:43;2.70;;;2.30;;
71648;SDS011;59492;45.638;11.714;2022-10-23T04:04:10;2.00;;;1.80;;
71648;SDS011;59492;45.638;11.714;2022-10-23T04:06:36;2.60;;;2.00;;
71648;SDS011;59492;45.638;11.714;2022-10-23T04:09:01;2.10;;;1.90;;
71648;SDS011;59492;45.638;11.714;2022-10-23T04:11:27;2.30;;;2.00;;
71648;SDS011;59492;45.638;11.714;2022-10-23T04:13:53;2.50;;;2.00;;
71648;SDS011;59492;45.638;11.714;2022-10-23T04:16:19;2.00;;;1.70;;
71648;SDS011;59492;45.638;11.714;2022-10-23T04:18:44;2.10;;;1.80;;
71648;SDS011;59492;45.638;11.714;2022-10-23T04:21:10;2.20;;;1.90;;
71648;SDS011;59492;45.638;11.714;2022-10-23T04:23:36;2.30;;;1.90;;
71648;SDS011;59492;45.638;11.714;2022-10-23T04:26:02;2.50;;;2.00;;
71648;SDS011;59492;45.638;11.714;2022-10-23T04:28:28;2.50;;;1.80;;
71648;SDS011;59492;45.638;11.714;2022-10-23T04:30:53;1.60;;;1.50;;
71648;SDS011;59492;45.638;11.714;2022-10-23T04:33:20;2.00;;;1.80;;
71648;SDS011;59492;45.638;11.714;2022-10-23T04:35:45;3.10;;;2.10;;
71648;SDS011;59492;45.638;11.714;2022-10-23T04:38:11;1.90;;;1.70;;
71648;SDS011;59492;45.638;11.714;2022-10-23T04:40:37;1.90;;;1.60;;
71648;SDS011;59492;45.638;11.714;2022-10-23T04:43:03;2.40;;;2.10;;
71648;SDS011;59492;45.638;11.714;2022-10-23T04:45:29;2.10;;;1.70;;
71648;SDS011;59492;45.638;11.714;2022-10-23T04:47:55;1.80;;;1.50;;
71648;SDS011;59492;45.638;11.714;2022-10-23T04:50:22;3.30;;;2.00;;
71648;SDS011;59492;45.638;11.714;2022-10-23T04:52:52;2.90;;;1.90;;
71648;SDS011;59492;45.638;11.714;2022-10-23T04:55:18;2.10;;;1.80;;
71648;SDS011;59492;45.638;11.714;2022-10-23T04:57:43;2.30;;;1.70;;
71648;SDS011;59492;45.638;11.714;2022-10-23T05:00:10;1.70;;;1.50;;
71648;SDS011;59492;45.638;11.714;2022-10-23T05:02:38;1.90;;;1.70;;
71648;SDS011;59492;45.638;11.714;2022-10-23T05:05:04;1.70;;;1.40;;
71648;SDS011;59492;45.638;11.714;2022-10-23T05:07:31;3.10;;;1.70;;
71648;SDS011;59492;45.638;11.714;2022-10-23T05:09:56;1.60;;;1.50;;
71648;SDS011;59492;45.638;11.714;2022-10-23T05:12:22;2.00;;;1.80;;
71648;SDS011;59492;45.638;11.714;2022-10-23T05:14:49;2.00;;;1.70;;
71648;SDS011;59492;45.638;11.714;2022-10-23T05:17:16;2.00;;;1.70;;
71648;SDS011;59492;45.638;11.714;2022-10-23T05:19:47;2.10;;;1.80;;
71648;SDS011;59492;45.638;11.714;2022-10-23T05:22:18;2.40;;;1.80;;
71648;SDS011;59492;45.638;11.714;2022-10-23T05:24:45;2.00;;;1.80;;
71648;SDS011;59492;45.638;11.714;2022-10-23T05:27:10;1.60;;;1.50;;
71648;SDS011;59492;45.638;11.714;2022-10-23T05:29:36;1.90;;;1.60;;
71648;SDS011;59492;45.638;11.714;2022-10-23T05:32:02;2.00;;;1.70;;
71648;SDS011;59492;45.638;11.714;2022-10-23T05:34:33;1.60;;;1.40;;
71648;SDS011;59492;45.638;11.714;2022-10-23T05:37:01;1.80;;;1.50;;
71648;SDS011;59492;45.638;11.714;2022-10-23T05:39:28;1.70;;;1.60;;
71648;SDS011;59492;45.638;11.714;2022-10-23T05:41:54;1.90;;;1.80;;
71648;SDS011;59492;45.638;11.714;2022-10-23T05:44:20;2.30;;;1.80;;
71648;SDS011;59492;45.638;11.714;2022-10-23T05:46:45;1.90;;;1.70;;
71648;SDS011;59492;45.638;11.714;2022-10-23T05:49:11;2.10;;;1.90;;
71648;SDS011;59492;45.638;11.714;2022-10-23T05:51:37;4.50;;;1.90;;
71648;SDS011;59492;45.638;11.714;2022-10-23T05:54:04;5.20;;;2.20;;
71648;SDS011;59492;45.638;11.714;2022-10-23T05:56:35;2.30;;;2.00;;
71648;SDS011;59492;45.638;11.714;2022-10-23T05:59:02;2.30;;;1.80;;
71648;SDS011;59492;45.638;11.714;2022-10-23T06:01:28;1.60;;;1.50;;
71648;SDS011;59492;45.638;11.714;2022-10-23T06:03:53;2.10;;;1.70;;
71648;SDS011;59492;45.638;11.714;2022-10-23T06:06:19;2.20;;;1.80;;
71648;SDS011;59492;45.638;11.714;2022-10-23T06:08:45;1.90;;;1.70;;
71648;SDS011;59492;45.638;11.714;2022-10-23T06:11:11;2.10;;;1.90;;
71648;SDS011;59492;45.638;11.714;2022-10-23T06:13:42;4.10;;;2.00;;
71648;SDS011;59492;45.638;11.714;2022-10-23T06:16:12;2.10;;;1.80;;
71648;SDS011;59492;45.638;11.714;2022-10-23T06:18:46;2.80;;;2.20;;
71648;SDS011;59492;45.638;11.714;2022-10-23T06:21:13;2.40;;;1.90;;
71648;SDS011;59492;45.638;11.714;2022-10-23T06:23:39;2.40;;;2.10;;
71648;SDS011;59492;45.638;11.714;2022-10-23T06:26:07;2.90;;;2.30;;
71648;SDS011;59492;45.638;11.714;2022-10-23T06:28:35;2.50;;;2.30;;
71648;SDS011;59492;45.638;11.714;2022-10-23T06:31:04;2.00;;;1.70;;
71648;SDS011;59492;45.638;11.714;2022-10-23T06:33:31;2.10;;;1.90;;
71648;SDS011;59492;45.638;11.714;2022-10-23T06:35:57;2.20;;;1.80;;
71648;SDS011;59492;45.638;11.714;2022-10-23T06:38:22;2.00;;;1.80;;
71648;SDS011;59492;45.638;11.714;2022-10-23T06:40:52;3.20;;;2.30;;
71648;SDS011;59492;45.638;11.714;2022-10-23T06:43:18;2.90;;;1.90;;
71648;SDS011;59492;45.638;11.714;2022-10-23T06:45:44;1.80;;;1.70;;
71648;SDS011;59492;45.638;11.714;2022-10-23T06:48:09;2.30;;;2.10;;
71648;SDS011;59492;45.638;11.714;2022-10-23T06:50:36;1.90;;;1.80;;
71648;SDS011;59492;45.638;11.714;2022-10-23T06:53:02;2.70;;;2.30;;
71648;SDS011;59492;45.638;11.714;2022-10-23T06:55:29;2.00;;;1.80;;
71648;SDS011;59492;45.638;11.714;2022-10-23T06:57:56;2.70;;;1.90;;
71648;SDS011;59492;45.638;11.714;2022-10-23T07:00:22;2.30;;;1.90;;
71648;SDS011;59492;45.638;11.714;2022-10-23T07:02:48;2.00;;;1.80;;
71648;SDS011;59492;45.638;11.714;2022-10-23T07:05:13;2.20;;;1.70;;
71648;SDS011;59492;45.638;11.714;2022-10-23T07:07:39;2.00;;;1.80;;
71648;SDS011;59492;45.638;11.714;2022-10-23T07:10:05;2.10;;;1.90;;
71648;SDS011;59492;45.638;11.714;2022-10-23T07:12:31;2.30;;;2.00;;
71648;SDS011;59492;45.638;11.714;2022-10-23T07:14:56;2.30;;;1.90;;
71648;SDS011;59492;45.638;11.714;2022-10-23T07:17:22;2.10;;;1.90;;
71648;SDS011;59492;45.638;11.714;2022-10-23T07:19:48;5.50;;;1.90;;
71648;SDS011;59492;45.638;11.714;2022-10-23T07:22:13;2.00;;;1.80;;
71648;SDS011;59492;45.638;11.714;2022-10-23T07:24:39;2.30;;;1.90;;
71648;SDS011;59492;45.638;11.714;2022-10-23T07:27:04;3.00;;;2.20;;
71648;SDS011;59492;45.638;11.714;2022-10-23T07:29:30;2.10;;;1.90;;
71648;SDS011;59492;45.638;11.714;2022-10-23T07:31:57;2.80;;;2.00;;
71648;SDS011;59492;45.638;11.714;2022-10-23T07:34:25;2.40;;;2.00;;
71648;SDS011;59492;45.638;11.714;2022-10-23T07:36:51;2.60;;;2.00;;
71648;SDS011;59492;45.638;11.714;2022-10-23T07:39:19;2.10;;;1.90;;
71648;SDS011;59492;45.638;11.714;2022-10-23T07:41:46;3.20;;;2.40;;
71648;SDS011;59492;45.638;11.714;2022-10-23T07:44:12;14.00;;;2.20;;
71648;SDS011;59492;45.638;11.714;2022-10-23T07:46:38;7.80;;;2.70;;
71648;SDS011;59492;45.638;11.714;2022-10-23T07:49:04;4.10;;;2.10;;
71648;SDS011;59492;45.638;11.714;2022-10-23T07:51:30;3.70;;;2.00;;
71648;SDS011;59492;45.638;11.714;2022-10-23T07:53:55;3.60;;;2.10;;
71648;SDS011;59492;45.638;11.714;2022-10-23T07:56:22;6.00;;;2.00;;
71648;SDS011;59492;45.638;11.714;2022-10-23T07:58:50;2.30;;;1.80;;
71648;SDS011;59492;45.638;11.714;2022-10-23T08:01:22;6.50;;;2.50;;
71648;SDS011;59492;45.638;11.714;2022-10-23T08:03:57;8.10;;;2.70;;
71648;SDS011;59492;45.638;11.714;2022-10-23T08:06:23;6.60;;;2.30;;
71648;SDS011;59492;45.638;11.714;2022-10-23T08:08:49;6.10;;;2.30;;
71648;SDS011;59492;45.638;11.714;2022-10-23T08:11:16;6.70;;;2.40;;
71648;SDS011;59492;45.638;11.714;2022-10-23T08:13:49;4.60;;;2.10;;
71648;SDS011;59492;45.638;11.714;2022-10-23T08:16:15;4.90;;;2.50;;
71648;SDS011;59492;45.638;11.714;2022-10-23T08:18:41;3.30;;;2.20;;
71648;SDS011;59492;45.638;11.714;2022-10-23T08:21:09;5.80;;;2.70;;
71648;SDS011;59492;45.638;11.714;2022-10-23T08:23:36;3.70;;;2.30;;
71648;SDS011;59492;45.638;11.714;2022-10-23T08:26:03;4.40;;;2.20;;
71648;SDS011;59492;45.638;11.714;2022-10-23T08:28:30;4.30;;;2.50;;
71648;SDS011;59492;45.638;11.714;2022-10-23T08:30:56;3.20;;;2.20;;
71648;SDS011;59492;45.638;11.714;2022-10-23T08:33:23;4.10;;;2.10;;
71648;SDS011;59492;45.638;11.714;2022-10-23T08:35:48;4.50;;;2.60;;
71648;SDS011;59492;45.638;11.714;2022-10-23T08:38:14;5.60;;;2.20;;
71648;SDS011;59492;45.638;11.714;2022-10-23T08:40:45;2.60;;;2.20;;
71648;SDS011;59492;45.638;11.714;2022-10-23T08:43:15;4.60;;;2.80;;
71648;SDS011;59492;45.638;11.714;2022-10-23T08:45:57;4.80;;;3.00;;
71648;SDS011;59492;45.638;11.714;2022-10-23T08:48:32;5.60;;;2.50;;
71648;SDS011;59492;45.638;11.714;2022-10-23T08:51:25;6.70;;;3.50;;
71648;SDS011;59492;45.638;11.714;2022-10-23T08:54:16;10.30;;;3.00;;
71648;SDS011;59492;45.638;11.714;2022-10-23T08:59:37;5.90;;;2.80;;
71648;SDS011;59492;45.638;11.714;2022-10-23T09:04:35;5.00;;;2.70;;
71648;SDS011;59492;45.638;11.714;2022-10-23T09:07:14;4.60;;;2.80;;
71648;SDS011;59492;45.638;11.714;2022-10-23T09:12:45;4.70;;;2.90;;
71648;SDS011;59492;45.638;11.714;2022-10-23T09:15:26;6.60;;;3.10;;
71648;SDS011;59492;45.638;11.714;2022-10-23T09:18:15;6.10;;;3.10;;
71648;SDS011;59492;45.638;11.714;2022-10-23T09:20:43;6.70;;;3.30;;
71648;SDS011;59492;45.638;11.714;2022-10-23T09:23:17;5.60;;;3.30;;
71648;SDS011;59492;45.638;11.714;2022-10-23T09:25:45;5.10;;;3.30;;
71648;SDS011;59492;45.638;11.714;2022-10-23T09:28:20;7.50;;;3.30;;
71648;SDS011;59492;45.638;11.714;2022-10-23T09:30:48;6.20;;;3.30;;
71648;SDS011;59492;45.638;11.714;2022-10-23T09:38:28;7.10;;;3.80;;
71648;SDS011;59492;45.638;11.714;2022-10-23T09:40:56;7.00;;;3.70;;
71648;SDS011;59492;45.638;11.714;2022-10-23T09:43:30;6.50;;;3.50;;
71648;SDS011;59492;45.638;11.714;2022-10-23T09:45:59;7.80;;;3.80;;
71648;SDS011;59492;45.638;11.714;2022-10-23T09:48:27;7.10;;;4.00;;
71648;SDS011;59492;45.638;11.714;2022-10-23T09:50:54;6.10;;;3.90;;
71648;SDS011;59492;45.638;11.714;2022-10-23T09:53:26;7.30;;;4.00;;
71648;SDS011;59492;45.638;11.714;2022-10-23T09:55:53;8.40;;;4.10;;
71648;SDS011;59492;45.638;11.714;2022-10-23T09:58:23;6.90;;;4.30;;
71648;SDS011;59492;45.638;11.714;2022-10-23T10:00:54;7.10;;;4.00;;
71648;SDS011;59492;45.638;11.714;2022-10-23T10:03:21;8.50;;;4.60;;
71648;SDS011;59492;45.638;11.714;2022-10-23T10:06:01;6.20;;;4.00;;
71648;SDS011;59492;45.638;11.714;2022-10-23T10:17:00;5.90;;;3.90;;
71648;SDS011;59492;45.638;11.714;2022-10-23T10:22:32;6.20;;;3.60;;
71648;SDS011;59492;45.638;11.714;2022-10-23T10:30:58;5.60;;;4.00;;
71648;SDS011;59492;45.638;11.714;2022-10-23T10:45:14;9.30;;;4.00;;
71648;SDS011;59492;45.638;11.714;2022-10-23T10:50:30;6.90;;;3.60;;
71648;SDS011;59492;45.638;11.714;2022-10-23T10:53:14;6.80;;;4.00;;
71648;SDS011;59492;45.638;11.714;2022-10-23T10:55:45;7.70;;;4.20;;
71648;SDS011;59492;45.638;11.714;2022-10-23T10:58:23;7.30;;;3.80;;
71648;SDS011;59492;45.638;11.714;2022-10-23T11:01:26;5.80;;;3.50;;
71648;SDS011;59492;45.638;11.714;2022-10-23T11:06:58;8.20;;;3.70;;
71648;SDS011;59492;45.638;11.714;2022-10-23T11:09:30;6.80;;;3.60;;
71648;SDS011;59492;45.638;11.714;2022-10-23T11:12:00;7.90;;;3.40;;
71648;SDS011;59492;45.638;11.714;2022-10-23T11:14:27;7.10;;;3.50;;
71648;SDS011;59492;45.638;11.714;2022-10-23T11:31:06;6.00;;;3.60;;
71648;SDS011;59492;45.638;11.714;2022-10-23T11:36:31;5.90;;;3.50;;
71648;SDS011;59492;45.638;11.714;2022-10-23T11:39:26;7.00;;;3.70;;
71648;SDS011;59492;45.638;11.714;2022-10-23T11:41:57;6.20;;;3.10;;
71648;SDS011;59492;45.638;11.714;2022-10-23T11:52:32;8.50;;;3.70;;
71648;SDS011;59492;45.638;11.714;2022-10-23T11:55:19;8.30;;;3.40;;
71648;SDS011;59492;45.638;11.714;2022-10-23T11:58:17;4.80;;;3.10;;
71648;SDS011;59492;45.638;11.714;2022-10-23T12:00:55;3.90;;;3.00;;
71648;SDS011;59492;45.638;11.714;2022-10-23T12:03:29;7.50;;;3.50;;
71648;SDS011;59492;45.638;11.714;2022-10-23T12:06:03;5.00;;;3.20;;
71648;SDS011;59492;45.638;11.714;2022-10-23T12:08:31;5.30;;;3.10;;
71648;SDS011;59492;45.638;11.714;2022-10-23T12:11:00;6.90;;;3.10;;
71648;SDS011;59492;45.638;11.714;2022-10-23T12:13:44;6.70;;;3.40;;
71648;SDS011;59492;45.638;11.714;2022-10-23T12:16:10;7.30;;;3.70;;
71648;SDS011;59492;45.638;11.714;2022-10-23T12:18:46;6.90;;;3.50;;
71648;SDS011;59492;45.638;11.714;2022-10-23T12:21:17;6.30;;;3.20;;
71648;SDS011;59492;45.638;11.714;2022-10-23T12:26:43;3.90;;;2.90;;
71648;SDS011;59492;45.638;11.714;2022-10-23T12:29:36;3.40;;;2.60;;
71648;SDS011;59492;45.638;11.714;2022-10-23T12:38:27;4.50;;;3.10;;
71648;SDS011;59492;45.638;11.714;2022-10-23T12:41:00;7.70;;;3.10;;
71648;SDS011;59492;45.638;11.714;2022-10-23T12:43:31;6.30;;;3.20;;
71648;SDS011;59492;45.638;11.714;2022-10-23T12:49:01;5.10;;;3.50;;
71648;SDS011;59492;45.638;11.714;2022-10-23T12:51:29;4.70;;;2.90;;
71648;SDS011;59492;45.638;11.714;2022-10-23T12:53:56;7.40;;;3.30;;
71648;SDS011;59492;45.638;11.714;2022-10-23T12:56:23;4.20;;;2.90;;
71648;SDS011;59492;45.638;11.714;2022-10-23T12:58:53;4.70;;;2.70;;
71648;SDS011;59492;45.638;11.714;2022-10-23T13:01:22;5.20;;;2.60;;
71648;SDS011;59492;45.638;11.714;2022-10-23T13:03:49;7.70;;;3.50;;
71648;SDS011;59492;45.638;11.714;2022-10-23T13:06:16;6.50;;;3.10;;
71648;SDS011;59492;45.638;11.714;2022-10-23T13:08:44;8.00;;;2.60;;
71648;SDS011;59492;45.638;11.714;2022-10-23T13:11:16;6.10;;;3.10;;
71648;SDS011;59492;45.638;11.714;2022-10-23T13:13:46;4.30;;;2.70;;
71648;SDS011;59492;45.638;11.714;2022-10-23T13:16:19;6.70;;;3.10;;
71648;SDS011;59492;45.638;11.714;2022-10-23T13:18:50;6.60;;;3.20;;
71648;SDS011;59492;45.638;11.714;2022-10-23T13:21:26;5.70;;;3.20;;
71648;SDS011;59492;45.638;11.714;2022-10-23T13:23:53;7.60;;;3.50;;
71648;SDS011;59492;45.638;11.714;2022-10-23T13:29:00;4.50;;;3.00;;
71648;SDS011;59492;45.638;11.714;2022-10-23T13:31:32;9.10;;;3.20;;
71648;SDS011;59492;45.638;11.714;2022-10-23T13:36:29;7.10;;;2.90;;
71648;SDS011;59492;45.638;11.714;2022-10-23T13:41:35;4.90;;;3.00;;
71648;SDS011;59492;45.638;11.714;2022-10-23T13:44:05;5.80;;;2.70;;
71648;SDS011;59492;45.638;11.714;2022-10-23T13:46:31;3.90;;;2.90;;
71648;SDS011;59492;45.638;11.714;2022-10-23T13:48:57;8.50;;;2.90;;
71648;SDS011;59492;45.638;11.714;2022-10-23T13:51:26;5.10;;;3.10;;
71648;SDS011;59492;45.638;11.714;2022-10-23T13:53:54;5.30;;;2.80;;
71648;SDS011;59492;45.638;11.714;2022-10-23T13:56:22;12.00;;;3.00;;
71648;SDS011;59492;45.638;11.714;2022-10-23T13:58:49;3.60;;;2.90;;
71648;SDS011;59492;45.638;11.714;2022-10-23T14:03:53;3.90;;;2.60;;
71648;SDS011;59492;45.638;11.714;2022-10-23T14:06:21;3.10;;;2.70;;
71648;SDS011;59492;45.638;11.714;2022-10-23T14:08:47;4.80;;;2.90;;
71648;SDS011;59492;45.638;11.714;2022-10-23T14:11:13;5.70;;;3.20;;
71648;SDS011;59492;45.638;11.714;2022-10-23T14:13:42;6.10;;;3.20;;
71648;SDS011;59492;45.638;11.714;2022-10-23T14:16:09;6.70;;;3.30;;
71648;SDS011;59492;45.638;11.714;2022-10-23T14:18:36;8.80;;;3.90;;
71648;SDS011;59492;45.638;11.714;2022-10-23T14:21:03;6.90;;;3.30;;
71648;SDS011;59492;45.638;11.714;2022-10-23T14:23:29;6.00;;;3.40;;
71648;SDS011;59492;45.638;11.714;2022-10-23T14:26:02;9.10;;;3.30;;
71648;SDS011;59492;45.638;11.714;2022-10-23T14:28:28;6.30;;;3.50;;
71648;SDS011;59492;45.638;11.714;2022-10-23T14:30:54;4.70;;;3.10;;
71648;SDS011;59492;45.638;11.714;2022-10-23T14:33:19;5.70;;;3.30;;
71648;SDS011;59492;45.638;11.714;2022-10-23T14:35:45;9.50;;;3.80;;
71648;SDS011;59492;45.638;11.714;2022-10-23T14:38:10;6.50;;;3.00;;
71648;SDS011;59492;45.638;11.714;2022-10-23T14:40:36;8.40;;;3.50;;
71648;SDS011;59492;45.638;11.714;2022-10-23T14:43:03;6.40;;;3.20;;
71648;SDS011;59492;45.638;11.714;2022-10-23T14:45:29;5.30;;;3.00;;
71648;SDS011;59492;45.638;11.714;2022-10-23T14:47:54;5.90;;;2.70;;
71648;SDS011;59492;45.638;11.714;2022-10-23T14:50:20;8.10;;;3.20;;
71648;SDS011;59492;45.638;11.714;2022-10-23T14:52:46;9.20;;;3.00;;
71648;SDS011;59492;45.638;11.714;2022-10-23T14:55:11;8.10;;;3.50;;
71648;SDS011;59492;45.638;11.714;2022-10-23T14:57:37;7.20;;;3.50;;
71648;SDS011;59492;45.638;11.714;2022-10-23T15:00:03;6.70;;;3.50;;
71648;SDS011;59492;45.638;11.714;2022-10-23T15:02:30;9.70;;;3.60;;
71648;SDS011;59492;45.638;11.714;2022-10-23T15:04:56;4.20;;;3.20;;
71648;SDS011;59492;45.638;11.714;2022-10-23T15:07:21;6.50;;;3.30;;
71648;SDS011;59492;45.638;11.714;2022-10-23T15:09:47;5.80;;;3.20;;
71648;SDS011;59492;45.638;11.714;2022-10-23T15:12:14;6.00;;;3.30;;
71648;SDS011;59492;45.638;11.714;2022-10-23T15:14:40;5.90;;;3.30;;
71648;SDS011;59492;45.638;11.714;2022-10-23T15:17:05;6.60;;;3.30;;
71648;SDS011;59492;45.638;11.714;2022-10-23T15:19:31;7.80;;;3.00;;
71648;SDS011;59492;45.638;11.714;2022-10-23T15:21:57;5.20;;;3.40;;
71648;SDS011;59492;45.638;11.714;2022-10-23T15:24:22;5.90;;;2.90;;
71648;SDS011;59492;45.638;11.714;2022-10-23T15:26:48;6.30;;;3.20;;
71648;SDS011;59492;45.638;11.714;2022-10-23T15:29:15;7.40;;;3.20;;
71648;SDS011;59492;45.638;11.714;2022-10-23T15:31:42;5.00;;;3.10;;
71648;SDS011;59492;45.638;11.714;2022-10-23T15:34:21;7.20;;;3.30;;
71648;SDS011;59492;45.638;11.714;2022-10-23T15:36:48;6.20;;;3.10;;
71648;SDS011;59492;45.638;11.714;2022-10-23T15:39:15;5.70;;;2.70;;
71648;SDS011;59492;45.638;11.714;2022-10-23T15:41:46;5.80;;;3.20;;
71648;SDS011;59492;45.638;11.714;2022-10-23T15:44:15;5.70;;;3.30;;
71648;SDS011;59492;45.638;11.714;2022-10-23T15:46:42;3.70;;;2.70;;
71648;SDS011;59492;45.638;11.714;2022-10-23T15:49:08;5.80;;;3.10;;
71648;SDS011;59492;45.638;11.714;2022-10-23T15:51:35;6.00;;;3.00;;
71648;SDS011;59492;45.638;11.714;2022-10-23T15:54:02;6.10;;;3.00;;
71648;SDS011;59492;45.638;11.714;2022-10-23T15:56:29;4.90;;;2.80;;
71648;SDS011;59492;45.638;11.714;2022-10-23T15:58:54;5.30;;;3.20;;
71648;SDS011;59492;45.638;11.714;2022-10-23T16:01:20;9.10;;;3.30;;
71648;SDS011;59492;45.638;11.714;2022-10-23T16:03:45;3.70;;;2.70;;
71648;SDS011;59492;45.638;11.714;2022-10-23T16:06:12;6.70;;;2.70;;
71648;SDS011;59492;45.638;11.714;2022-10-23T16:08:39;5.50;;;2.60;;
71648;SDS011;59492;45.638;11.714;2022-10-23T16:11:11;4.40;;;2.90;;
71648;SDS011;59492;45.638;11.714;2022-10-23T16:16:14;6.60;;;2.80;;
71648;SDS011;59492;45.638;11.714;2022-10-23T16:18:40;4.20;;;2.70;;
71648;SDS011;59492;45.638;11.714;2022-10-23T16:21:11;6.20;;;3.00;;
71648;SDS011;59492;45.638;11.714;2022-10-23T16:23:43;4.20;;;2.70;;
71648;SDS011;59492;45.638;11.714;2022-10-23T16:26:09;5.80;;;2.90;;
71648;SDS011;59492;45.638;11.714;2022-10-23T16:28:35;5.30;;;2.90;;
71648;SDS011;59492;45.638;11.714;2022-10-23T16:31:06;3.50;;;3.00;;
71648;SDS011;59492;45.638;11.714;2022-10-23T16:33:34;5.30;;;3.00;;
71648;SDS011;59492;45.638;11.714;2022-10-23T16:36:07;8.30;;;3.40;;
71648;SDS011;59492;45.638;11.714;2022-10-23T16:38:33;4.50;;;3.00;;
71648;SDS011;59492;45.638;11.714;2022-10-23T16:40:59;5.00;;;2.70;;
71648;SDS011;59492;45.638;11.714;2022-10-23T16:43:25;8.10;;;2.80;;
71648;SDS011;59492;45.638;11.714;2022-10-23T16:46:02;6.40;;;3.20;;
71648;SDS011;59492;45.638;11.714;2022-10-23T16:48:32;8.00;;;3.40;;
71648;SDS011;59492;45.638;11.714;2022-10-23T16:50:59;11.80;;;3.30;;
71648;SDS011;59492;45.638;11.714;2022-10-23T16:53:29;4.70;;;2.90;;
71648;SDS011;59492;45.638;11.714;2022-10-23T16:55:56;5.20;;;3.00;;
71648;SDS011;59492;45.638;11.714;2022-10-23T16:58:22;5.50;;;2.90;;